Terminal Aerodrome Forecast
Issued by NWS Mt. Holly, NJ

Home | Current Version | Previous Version | Text Only | Print | Product List | Glossary On
Versions: 1 2 3 4 5 6 7 8 9 10 11 12 13 14 15 16 17 18 19 20 21 22 23 24
000
FTUS41 KPHI 021733
TAFTTN
TAF
KTTN 021733Z 0218/0318 03006KT 5SM -SHRA OVC006
      TEMPO 0218/0222 P6SM OVC010
     FM022200 07008KT 4SM BR OVC009
     FM030400 07010KT 4SM BR OVC005
     FM031500 09010KT P6SM SCT009 OVC020=

USA.gov is the U.S. government's official web portal to all federal, state and local government web resources and services.